createdAt,value
2019-03-18T00:01:19.861Z,3.32
2019-03-18T00:06:25.088Z,3.30
2019-03-18T00:11:30.291Z,3.25
2019-03-18T00:16:37.095Z,3.28
2019-03-18T00:21:42.321Z,3.22
2019-03-18T00:26:48.772Z,3.11
2019-03-18T00:31:54.307Z,3.25
2019-03-18T00:36:59.651Z,3.22
2019-03-18T00:42:05.518Z,3.20
2019-03-18T00:47:10.748Z,3.22
2019-03-18T00:52:16.349Z,3.33
2019-03-18T00:57:21.552Z,3.25
2019-03-18T01:02:27.512Z,3.32
2019-03-18T01:07:32.710Z,3.32
2019-03-18T01:12:37.980Z,3.42
2019-03-18T01:17:43.206Z,3.34
2019-03-18T01:22:49.595Z,3.36
2019-03-18T01:27:54.809Z,3.37
2019-03-18T01:33:00.065Z,3.26
2019-03-18T01:38:06.598Z,3.24
2019-03-18T01:43:11.970Z,3.25
2019-03-18T01:48:17.242Z,3.19
2019-03-18T01:53:22.570Z,3.28
2019-03-18T01:58:27.949Z,3.27
2019-03-18T02:03:33.142Z,3.23
2019-03-18T02:08:38.541Z,3.29
2019-03-18T02:13:43.981Z,3.30
2019-03-18T02:18:49.222Z,3.25
2019-03-18T02:23:54.471Z,3.28
2019-03-18T02:28:59.676Z,3.43
2019-03-18T02:34:04.922Z,3.36
2019-03-18T02:39:10.192Z,3.43
2019-03-18T02:44:15.515Z,3.43
2019-03-18T02:49:20.729Z,3.52
2019-03-18T02:54:30.238Z,3.52
2019-03-18T02:59:35.809Z,3.52
2019-03-18T03:04:42.201Z,3.52
2019-03-18T03:09:47.520Z,3.50
2019-03-18T03:14:52.717Z,3.43
2019-03-18T03:19:57.962Z,3.39
2019-03-18T03:25:04.645Z,3.33
2019-03-18T03:30:10.153Z,3.38
2019-03-18T03:35:16.125Z,3.29
2019-03-18T03:40:22.425Z,3.36
2019-03-18T03:45:27.749Z,3.32
2019-03-18T03:50:33.332Z,3.27
2019-03-18T03:55:39.237Z,3.15
2019-03-18T04:00:45.151Z,3.23
2019-03-18T04:05:50.644Z,3.27
2019-03-18T04:10:55.832Z,3.33
2019-03-18T04:16:03.711Z,3.35
2019-03-18T04:21:08.951Z,3.38
2019-03-18T04:26:14.677Z,3.38
2019-03-18T04:31:22.326Z,3.43
2019-03-18T04:36:27.582Z,3.48
2019-03-18T04:41:35.441Z,3.48
2019-03-18T04:46:41.083Z,3.51
2019-03-18T04:51:46.436Z,3.55
2019-03-18T04:56:51.650Z,3.57
2019-03-18T05:01:57.083Z,3.48
2019-03-18T05:07:02.367Z,3.48
2019-03-18T05:12:07.729Z,3.51
2019-03-18T05:17:25.880Z,3.44
2019-03-18T05:22:20.407Z,3.57
2019-03-18T05:27:25.779Z,3.58
2019-03-18T05:32:30.968Z,3.62
2019-03-18T05:37:36.292Z,3.59
2019-03-18T05:42:41.621Z,3.59
2019-03-18T05:47:47.989Z,3.63
2019-03-18T05:52:53.291Z,3.64
2019-03-18T05:57:58.658Z,3.63
2019-03-18T06:03:04.286Z,3.70
2019-03-18T06:08:11.615Z,3.78
2019-03-18T06:13:16.876Z,3.80
2019-03-18T06:18:23.115Z,3.85
2019-03-18T06:23:28.314Z,3.87
2019-03-18T06:28:33.584Z,3.84
2019-03-18T06:33:38.928Z,4.02
2019-03-18T06:38:44.252Z,3.99
2019-03-18T06:43:49.452Z,4.00
2019-03-18T06:48:54.806Z,4.07
2019-03-18T06:54:00.360Z,4.17
2019-03-18T06:59:05.663Z,4.24
2019-03-18T07:04:11.382Z,4.07
2019-03-18T07:09:16.653Z,4.04
2019-03-18T07:14:22.022Z,4.04
2019-03-18T07:19:28.431Z,3.96
2019-03-18T07:24:34.990Z,4.00
2019-03-18T07:29:40.221Z,4.16
2019-03-18T07:34:46.501Z,4.03
2019-03-18T07:39:51.835Z,4.10
2019-03-18T07:44:57.310Z,4.13
2019-03-18T07:50:02.693Z,4.16
2019-03-18T07:55:09.507Z,4.23
2019-03-18T08:00:15.272Z,4.24
2019-03-18T08:05:20.843Z,4.05
2019-03-18T08:10:27.263Z,4.16
2019-03-18T08:15:32.938Z,3.82
2019-03-18T08:20:40.924Z,3.87
2019-03-18T08:25:46.191Z,4.02
2019-03-18T08:30:51.664Z,4.87
2019-03-18T08:35:56.884Z,4.86
2019-03-18T08:41:02.085Z,5.29
2019-03-18T08:46:07.328Z,5.47
2019-03-18T08:51:12.550Z,5.59
2019-03-18T08:56:17.881Z,5.57
2019-03-18T09:01:23.158Z,5.70
2019-03-18T09:06:30.290Z,5.95
2019-03-18T09:11:35.356Z,6.40
2019-03-18T09:16:40.634Z,6.52
2019-03-18T09:21:45.841Z,6.31
2019-03-18T09:27:01.903Z,6.22
2019-03-18T09:31:57.983Z,6.32
2019-03-18T09:37:03.200Z,6.71
2019-03-18T09:42:08.493Z,7.13
2019-03-18T09:47:13.728Z,7.40
2019-03-18T09:52:19.015Z,7.11
2019-03-18T09:57:26.435Z,7.25
2019-03-18T10:02:31.236Z,7.18
2019-03-18T10:07:36.443Z,6.97
2019-03-18T10:12:41.837Z,7.08
2019-03-18T10:17:47.163Z,7.26
2019-03-18T10:22:52.802Z,7.26
2019-03-18T10:27:58.133Z,7.51
2019-03-18T10:33:03.359Z,7.49
2019-03-18T10:38:08.798Z,8.53
2019-03-18T10:43:14.035Z,8.82
2019-03-18T10:48:19.347Z,8.64
2019-03-18T10:53:24.621Z,8.36
2019-03-18T10:58:29.960Z,8.75
2019-03-18T11:03:35.255Z,9.42
2019-03-18T11:08:40.563Z,9.26
2019-03-18T11:13:45.797Z,9.84
2019-03-18T11:18:51.201Z,10.07
2019-03-18T11:23:56.414Z,9.42
2019-03-18T11:29:01.617Z,8.31
2019-03-18T11:34:06.955Z,7.73
2019-03-18T11:39:12.266Z,7.38
2019-03-18T11:44:17.478Z,6.95
2019-03-18T11:49:23.679Z,7.02
2019-03-18T11:54:29.100Z,6.98
2019-03-18T11:59:34.381Z,6.91
2019-03-18T12:04:39.678Z,7.11
2019-03-18T12:09:45.208Z,7.44
2019-03-18T12:14:50.536Z,7.65
2019-03-18T12:19:55.758Z,9.18
2019-03-18T12:25:01.048Z,8.75
2019-03-18T12:30:09.209Z,8.06
2019-03-18T12:35:14.454Z,7.26
2019-03-18T12:40:19.671Z,7.59
2019-03-18T12:45:25.961Z,7.98
2019-03-18T12:50:49.121Z,8.47
2019-03-18T12:55:39.162Z,8.60
2019-03-18T13:00:44.404Z,11.68
2019-03-18T13:05:50.101Z,14.16
2019-03-18T13:10:55.340Z,15.67
2019-03-18T13:16:00.610Z,17.12
2019-03-18T13:21:08.071Z,18.06
2019-03-18T13:26:13.739Z,20.09
2019-03-18T13:31:19.049Z,20.06
2019-03-18T13:36:25.601Z,19.91
2019-03-18T13:41:30.914Z,14.98
2019-03-18T13:52:47.392Z,12.98
2019-03-18T13:57:52.714Z,10.15
2019-03-18T14:02:57.910Z,9.22
2019-03-18T14:08:03.515Z,8.63
2019-03-18T14:13:09.718Z,8.10
2019-03-18T14:18:15.018Z,7.99
2019-03-18T14:23:20.786Z,7.68
2019-03-18T14:28:26.047Z,7.35
2019-03-18T14:33:31.276Z,7.92
2019-03-18T14:38:38.392Z,7.80
2019-03-18T14:43:46.454Z,7.82
2019-03-18T14:48:50.534Z,7.46
2019-03-18T14:53:55.747Z,7.71
2019-03-18T14:59:01.123Z,7.88
2019-03-18T15:04:06.729Z,8.00
2019-03-18T15:09:12.193Z,8.20
2019-03-18T15:14:17.580Z,8.30
2019-03-18T15:19:22.757Z,8.58
2019-03-18T15:24:32.551Z,8.75
2019-03-18T15:29:38.397Z,8.66
2019-03-18T15:34:44.879Z,9.08
2019-03-18T15:39:50.114Z,8.96
2019-03-18T15:44:55.381Z,8.73
2019-03-18T15:50:00.637Z,8.60
2019-03-18T15:55:06.080Z,8.56
2019-03-18T16:00:13.668Z,8.48
2019-03-18T16:05:18.991Z,7.95
2019-03-18T16:10:24.704Z,7.73
2019-03-18T16:15:30.473Z,7.65
2019-03-18T16:20:36.021Z,7.52
2019-03-18T16:25:41.396Z,7.50
2019-03-18T16:30:46.675Z,7.40
2019-03-18T16:35:52.062Z,7.24
2019-03-18T16:40:57.252Z,7.11
2019-03-18T16:46:02.463Z,7.34
2019-03-18T16:51:07.651Z,7.41
2019-03-18T16:56:12.859Z,7.26
2019-03-18T17:01:18.064Z,7.09
2019-03-18T17:06:23.537Z,6.94
2019-03-18T17:11:30.668Z,6.67
2019-03-18T17:16:35.902Z,6.60
2019-03-18T17:21:41.104Z,6.50
2019-03-18T17:26:46.837Z,6.46
2019-03-18T17:31:52.240Z,6.47
2019-03-18T17:36:57.774Z,6.45
2019-03-18T17:42:03.013Z,6.42
2019-03-18T17:47:08.304Z,6.37
2019-03-18T17:52:14.264Z,6.23
2019-03-18T17:57:19.516Z,6.17
2019-03-18T18:02:25.177Z,6.03
2019-03-18T18:07:30.464Z,5.74
2019-03-18T18:12:36.510Z,5.61
2019-03-18T18:17:41.931Z,5.43
2019-03-18T18:22:47.318Z,5.29
2019-03-18T18:27:52.624Z,5.16
2019-03-18T18:32:57.898Z,5.10
2019-03-18T18:38:03.216Z,4.99
2019-03-18T18:43:08.624Z,4.83
2019-03-18T18:48:13.826Z,4.87
2019-03-18T18:53:26.205Z,4.78
2019-03-18T18:58:29.841Z,4.63
2019-03-18T19:03:35.110Z,4.52
2019-03-18T19:08:41.074Z,4.36
2019-03-18T19:13:46.686Z,4.42
2019-03-18T19:18:53.032Z,4.32
2019-03-18T19:23:58.356Z,4.23
2019-03-18T19:29:03.562Z,4.33
2019-03-18T19:34:08.890Z,4.28
2019-03-18T19:39:14.914Z,4.28
2019-03-18T19:44:20.785Z,4.19
2019-03-18T19:49:26.233Z,4.10
2019-03-18T19:54:31.638Z,4.05
2019-03-18T19:59:37.022Z,3.92
2019-03-18T20:04:42.428Z,3.82
2019-03-18T20:09:47.840Z,3.79
2019-03-18T20:14:53.240Z,3.78
2019-03-18T20:19:59.614Z,3.64
2019-03-18T20:25:06.826Z,3.57
2019-03-18T20:30:14.033Z,3.45
2019-03-18T20:35:19.394Z,3.38
2019-03-18T20:40:25.176Z,3.17
2019-03-18T20:45:30.788Z,3.07
2019-03-18T20:50:36.454Z,3.10
2019-03-18T20:55:42.292Z,3.06
2019-03-18T21:00:47.568Z,2.92
2019-03-18T21:05:53.001Z,2.79
2019-03-18T21:10:58.419Z,2.89
2019-03-18T21:16:04.750Z,2.74
2019-03-18T21:21:10.398Z,2.62
2019-03-18T21:26:15.805Z,2.59
2019-03-18T21:31:21.180Z,2.57
2019-03-18T21:36:37.476Z,2.57
2019-03-18T21:41:34.095Z,2.54
2019-03-18T21:46:39.961Z,2.32
2019-03-18T21:51:45.710Z,2.36
2019-03-18T21:56:51.402Z,2.24
2019-03-18T22:01:57.575Z,2.35
2019-03-18T22:07:02.969Z,2.23
2019-03-18T22:12:08.266Z,2.20
2019-03-18T22:17:13.618Z,2.12
2019-03-18T22:22:18.827Z,2.15
2019-03-18T22:27:24.498Z,2.17
2019-03-18T22:32:29.698Z,2.07
2019-03-18T22:37:38.161Z,1.98
2019-03-18T22:42:43.755Z,2.01
2019-03-18T22:47:49.467Z,1.94
2019-03-18T22:52:54.890Z,1.87
2019-03-18T22:58:01.297Z,1.77
2019-03-18T23:03:06.852Z,1.64
2019-03-18T23:08:12.150Z,1.76
2019-03-18T23:13:17.499Z,1.70
2019-03-18T23:18:22.706Z,1.68
2019-03-18T23:23:28.031Z,1.68
2019-03-18T23:28:33.330Z,1.72
2019-03-18T23:33:38.916Z,1.51
2019-03-18T23:38:44.300Z,1.53
2019-03-18T23:43:49.501Z,1.54
2019-03-18T23:48:54.859Z,1.55
2019-03-18T23:54:00.154Z,1.45
2019-03-18T23:59:05.470Z,1.41
